ADDS METAR Data INFO
IDs: Format: Raw Decoded Include TAF

Data at: 0706 UTC 19 Oct 2017

K2I0 190655Z AUTO 18003KT 10SM CLR 10/09 A3021 RMK AO2 T01010090
K2I0 190435Z AUTO 00000KT 10SM CLR 10/09 A3021 RMK AO2 T00970090
K2I0 190415Z AUTO 00000KT 10SM CLR 11/10 A3021 RMK AO2 T01050098
K2I0 190255Z AUTO 00000KT 10SM CLR 12/11 A3021 RMK AO2 T01190105
K2I0 190235Z AUTO 00000KT 10SM CLR 13/10 A3021 RMK AO2 T01280102
K2I0 190215Z AUTO 18003KT 10SM CLR 13/10 A3021 RMK AO2 T01310097
K2I0 190155Z AUTO 19003KT 10SM CLR 14/10 A3020 RMK AO2 T01390104
K2I0 190135Z AUTO 19003KT 10SM CLR 15/11 A3021 RMK AO2 T01460105
K2I0 190015Z AUTO 18004KT 10SM CLR 16/11 A3021 RMK AO2 T01580114
K2I0 182355Z AUTO 00000KT 10SM CLR 16/11 A3021 RMK AO2 T01620110 10232 20160
K2I0 182335Z AUTO 00000KT 10SM CLR 18/11 A3020 RMK AO2 T01780110
K2I0 182315Z AUTO 18003KT 10SM CLR 19/11 A3020 RMK AO2 T01920108
K2I0 182255Z AUTO 17003KT 10SM CLR 20/11 A3019 RMK AO2 T02000105
K2I0 182135Z AUTO 20006KT 10SM CLR 23/10 A3020 RMK AO2 T02260097
K2I0 182115Z AUTO 21008KT 10SM CLR 23/10 A3020 RMK AO2 T02290098
K2I0 182015Z AUTO 18006KT 10SM CLR 23/10 A3021 RMK AO2 T02300099
K2I0 181755Z AUTO 20008KT 10SM CLR 22/10 A3027 RMK AO2 T02160095 10216 20048
K2I0 181735Z AUTO 21007KT 10SM CLR 21/10 A3028 RMK AO2 T02120098
K2I0 181715Z AUTO 19007KT 10SM CLR 21/10 A3029 RMK AO2 T02050098
K2I0 181655Z AUTO 22010KT 10SM CLR 21/10 A3029 RMK AO2 T02070095
K2I0 181535Z AUTO 21006KT 10SM CLR 17/10 A3032 RMK AO2 T01740102
K2I0 181415Z AUTO 22004KT 10SM CLR 14/10 A3031 RMK AO2 T01370103
K2I0 181255Z AUTO 00000KT 10SM CLR 07/07 A3029 RMK AO2 T00690069
K2I0 181135Z AUTO 00000KT 10SM CLR 06/06 A3028 RMK AO2 T00580058
K2I0 181115Z AUTO 00000KT 10SM CLR 06/06 A3028 RMK AO2 T00570057
K2I0 181055Z AUTO 00000KT 1 1/2SM BR VV007 06/06 A3028 RMK AO2 T00550055
K2I0 181035Z AUTO 00000KT 7SM SCT002 06/06 A3028 RMK AO2 T00570057
K2I0 180815Z AUTO 00000KT 4SM BR CLR 07/07 A3026 RMK AO2 T00670067
K2I0 180755Z AUTO 00000KT 2 1/2SM BR CLR 07/07 A3026 RMK AO2 VIS 1V5 T00660066
K2I0 180635Z AUTO 00000KT 1 1/4SM BR VV007 07/07 A3026 RMK AO2 VIS 1/2V5 T00740073
K2I0 180615Z AUTO 00000KT 7SM CLR 08/07 A3026 RMK AO2 T00760074
K2I0 180355Z AUTO 00000KT 10SM CLR 09/09 A3027 RMK AO2 T00920090
K2I0 180135Z AUTO 00000KT 10SM CLR 12/10 A3026 RMK AO2 T01150096
K2I0 180115Z AUTO 00000KT 10SM CLR 12/09 A3026 RMK AO2 T01180093
K2I0 172255Z AUTO 00000KT 10SM CLR 18/09 A3026 RMK AO2 T01760091
K2I0 172235Z AUTO 00000KT 10SM CLR 19/08 A3026 RMK AO2 T01890077
K2I0 172215Z AUTO 00000KT 10SM CLR 20/07 A3026 RMK AO2 T01950066
K2I0 172055Z AUTO 18005KT 10SM CLR 20/07 A3027 RMK AO2 T02020071
K2I0 171935Z AUTO 21004KT 10SM CLR 20/07 A3029 RMK AO2 T02020069